createdAt,value
2023-09-26T00:01:56.575Z,83.53
2023-09-26T00:06:21.605Z,84.63
2023-09-26T00:08:25.798Z,82.68
2023-09-26T00:10:27.340Z,80.60
2023-09-26T00:12:29.591Z,79.55
2023-09-26T00:14:31.109Z,77.78
2023-09-26T00:16:32.665Z,77.55
2023-09-26T00:18:34.262Z,78.57
2023-09-26T00:20:40.628Z,80.53
2023-09-26T00:22:54.705Z,81.32
2023-09-26T00:25:13.151Z,81.85
2023-09-26T00:27:28.771Z,80.43
2023-09-26T00:31:48.063Z,80.15
2023-09-26T00:34:04.584Z,78.97
2023-09-26T00:36:19.626Z,78.18
2023-09-26T00:38:32.385Z,79.65
2023-09-26T00:40:45.390Z,81.18
2023-09-26T00:42:58.391Z,81.85
2023-09-26T00:45:13.681Z,83.05
2023-09-26T00:47:31.965Z,80.95
2023-09-26T00:49:41.436Z,81.88
2023-09-26T00:51:49.265Z,81.35
2023-09-26T00:53:56.451Z,80.25
2023-09-26T00:56:10.006Z,82.13
2023-09-26T00:58:20.364Z,81.72
2023-09-26T01:00:32.675Z,81.53
2023-09-26T01:02:40.010Z,80.38
2023-09-26T01:04:44.543Z,79.68
2023-09-26T01:06:48.991Z,78.63
2023-09-26T01:08:50.605Z,76.15
2023-09-26T01:10:52.140Z,76.13
2023-09-26T01:14:57.682Z,76.18
2023-09-26T01:17:02.157Z,76.18
2023-09-26T01:19:06.653Z,75.53
2023-09-26T01:21:09.117Z,75.00
2023-09-26T01:23:11.888Z,74.05
2023-09-26T01:25:14.679Z,73.45
2023-09-26T01:27:22.052Z,71.13
2023-09-26T01:29:26.555Z,70.93
2023-09-26T01:31:34.877Z,68.70
2023-09-26T01:33:39.504Z,67.43
2023-09-26T01:35:41.082Z,71.57
2023-09-26T01:37:42.596Z,70.65
2023-09-26T01:39:46.991Z,71.43
2023-09-26T01:42:07.000Z,72.22
2023-09-26T01:46:12.940Z,70.30
2023-09-26T01:48:18.074Z,70.75
2023-09-26T01:50:22.471Z,70.93
2023-09-26T01:52:23.958Z,71.90
2023-09-26T01:56:35.242Z,69.75
2023-09-26T01:58:42.716Z,69.45
2023-09-26T02:00:44.238Z,66.93
2023-09-26T02:02:50.255Z,66.07
2023-09-26T02:04:51.770Z,64.10
2023-09-26T02:06:53.238Z,64.68
2023-09-26T02:08:54.776Z,64.82
2023-09-26T02:10:56.391Z,66.97
2023-09-26T02:12:57.907Z,66.20
2023-09-26T02:15:04.826Z,64.07
2023-09-26T02:17:06.384Z,63.70
2023-09-26T02:19:10.762Z,62.40
2023-09-26T02:21:16.251Z,61.35
2023-09-26T02:23:17.733Z,62.95
2023-09-26T02:25:24.323Z,64.75
2023-09-26T02:27:28.726Z,64.28
2023-09-26T02:29:30.201Z,65.85
2023-09-26T02:31:31.790Z,63.63
2023-09-26T02:33:36.405Z,60.33
2023-09-26T02:35:38.268Z,58.80
2023-09-26T02:37:40.244Z,58.67
2023-09-26T02:39:44.402Z,56.65
2023-09-26T02:41:48.816Z,60.22
2023-09-26T02:43:56.794Z,60.15
2023-09-26T02:46:01.437Z,56.40
2023-09-26T02:48:06.042Z,56.70
2023-09-26T02:50:08.695Z,55.22
2023-09-26T02:52:28.676Z,56.28
2023-09-26T02:54:30.127Z,56.58
2023-09-26T02:56:31.594Z,56.65
2023-09-26T02:58:33.104Z,56.42
2023-09-26T03:00:34.669Z,56.15
2023-09-26T03:02:39.742Z,53.60
2023-09-26T03:04:47.531Z,51.60
2023-09-26T03:06:49.138Z,51.00
2023-09-26T03:08:50.636Z,47.08
2023-09-26T03:10:52.108Z,47.88
2023-09-26T03:12:53.621Z,47.38
2023-09-26T03:14:57.841Z,49.47
2023-09-26T03:16:59.512Z,50.63
2023-09-26T03:19:01.171Z,49.70
2023-09-26T03:21:21.789Z,49.40
2023-09-26T03:23:26.387Z,49.10
2023-09-26T03:25:32.754Z,44.63
2023-09-26T03:27:36.081Z,43.53
2023-09-26T03:29:58.247Z,44.97
2023-09-26T03:32:01.851Z,44.50
2023-09-26T03:34:24.030Z,43.00
2023-09-26T03:36:27.264Z,44.90
2023-09-26T03:38:30.820Z,41.85
2023-09-26T03:40:36.639Z,43.63
2023-09-26T03:42:40.653Z,45.10
2023-09-26T03:44:47.244Z,41.75
2023-09-26T03:46:50.292Z,39.72
2023-09-26T03:48:56.645Z,40.63
2023-09-26T03:51:10.857Z,37.70
2023-09-26T03:53:14.893Z,36.05
2023-09-26T03:55:25.551Z,35.13
2023-09-26T03:57:29.003Z,34.45
2023-09-26T03:59:35.655Z,35.75
2023-09-26T04:01:41.903Z,35.92
2023-09-26T04:03:46.918Z,36.72
2023-09-26T04:05:49.429Z,36.05
2023-09-26T04:07:56.621Z,35.05
2023-09-26T04:09:58.244Z,36.75
2023-09-26T04:11:59.826Z,35.28
2023-09-26T04:14:01.477Z,36.00
2023-09-26T04:16:06.627Z,35.47
2023-09-26T04:18:08.275Z,33.88
2023-09-26T04:20:31.385Z,36.03
2023-09-26T04:22:57.305Z,36.85
2023-09-26T04:25:01.452Z,36.78
2023-09-26T04:27:02.985Z,36.53
2023-09-26T04:29:07.625Z,35.05
2023-09-26T04:31:19.194Z,34.72
2023-09-26T04:35:24.929Z,31.63
2023-09-26T04:37:45.507Z,29.88
2023-09-26T04:39:47.001Z,30.20
2023-09-26T04:41:51.179Z,32.22
2023-09-26T04:43:52.690Z,32.00
2023-09-26T04:45:54.329Z,29.95
2023-09-26T04:48:15.084Z,26.52
2023-09-26T04:50:16.531Z,25.75
2023-09-26T04:52:18.118Z,24.63
2023-09-26T04:54:22.341Z,22.58
2023-09-26T04:56:23.841Z,22.23
2023-09-26T04:58:30.315Z,22.15
2023-09-26T05:00:32.301Z,22.58
2023-09-26T05:02:33.803Z,23.38
2023-09-26T05:04:38.033Z,23.92
2023-09-26T05:06:42.408Z,23.10
2023-09-26T05:08:46.880Z,22.20
2023-09-26T05:10:50.733Z,21.08
2023-09-26T05:12:52.231Z,20.23
2023-09-26T05:14:53.674Z,19.93
2023-09-26T05:18:56.526Z,129.55
2023-09-26T05:20:58.352Z,59.25
2023-09-26T05:23:04.243Z,54.22
2023-09-26T05:25:06.096Z,50.85
2023-09-26T05:27:07.748Z,47.97
2023-09-26T05:29:09.194Z,43.35
2023-09-26T05:31:30.102Z,39.75
2023-09-26T05:33:31.866Z,39.75
2023-09-26T05:35:33.349Z,38.58
2023-09-26T05:37:35.643Z,33.92
2023-09-26T05:39:37.267Z,35.33
2023-09-26T05:41:39.478Z,33.40
2023-09-26T05:43:41.020Z,32.15
2023-09-26T05:45:42.542Z,33.50
2023-09-26T05:47:44.408Z,32.72
2023-09-26T05:50:05.645Z,29.75
2023-09-26T05:52:07.187Z,30.65
2023-09-26T05:56:28.321Z,30.35
2023-09-26T05:58:32.618Z,30.80
2023-09-26T06:00:35.909Z,30.63
2023-09-26T06:02:40.686Z,30.48
2023-09-26T06:04:43.259Z,27.65
2023-09-26T06:06:47.578Z,27.70
2023-09-26T06:08:53.624Z,29.40
2023-09-26T06:10:56.339Z,28.13
2023-09-26T06:12:57.889Z,26.75
2023-09-26T06:14:59.575Z,21.92
2023-09-26T06:17:05.074Z,20.58
2023-09-26T06:19:06.768Z,19.30
2023-09-26T06:23:19.581Z,60.25
2023-09-26T06:25:24.023Z,30.08
2023-09-26T06:27:35.363Z,21.45
2023-09-26T06:29:43.206Z,21.50
2023-09-26T06:36:13.120Z,55.38
2023-09-26T06:38:14.927Z,22.30
2023-09-26T06:42:39.770Z,51.40
2023-09-26T06:46:49.432Z,47.55
2023-09-26T06:50:55.521Z,50.95
2023-09-26T06:54:58.664Z,48.97
2023-09-26T06:59:07.579Z,47.42
2023-09-26T07:03:13.405Z,48.13
2023-09-26T07:11:25.925Z,64.72
2023-09-26T07:15:58.724Z,69.53
2023-09-26T07:18:00.505Z,30.42
2023-09-26T07:22:12.355Z,63.63
2023-09-26T07:26:18.682Z,75.55
2023-09-26T07:30:27.328Z,83.68
2023-09-26T07:34:33.314Z,65.55
2023-09-26T07:57:06.167Z,50.58
2023-09-26T09:26:15.390Z,61.53
2023-09-26T09:28:24.101Z,48.38
2023-09-26T09:30:29.559Z,41.50
2023-09-26T09:32:32.557Z,43.92
2023-09-26T09:34:38.206Z,42.72
2023-09-26T09:36:47.866Z,47.25
2023-09-26T09:39:17.365Z,46.72
2023-09-26T09:41:23.934Z,48.72
2023-09-26T09:43:34.136Z,50.22
2023-09-26T09:45:41.224Z,48.65
2023-09-26T09:47:50.136Z,49.58
2023-09-26T09:49:56.341Z,49.22
2023-09-26T09:52:16.946Z,50.08
2023-09-26T09:54:25.965Z,49.58
2023-09-26T09:56:35.459Z,50.08
2023-09-26T09:58:46.466Z,52.78
2023-09-26T10:00:53.418Z,50.60
2023-09-26T10:03:06.370Z,52.72
2023-09-26T10:05:14.398Z,51.22
2023-09-26T10:07:19.624Z,50.58
2023-09-26T10:09:30.294Z,48.97
2023-09-26T10:11:37.314Z,49.08
2023-09-26T10:13:42.924Z,48.55
2023-09-26T10:16:07.576Z,45.90
2023-09-26T10:18:13.459Z,50.72
2023-09-26T10:20:39.989Z,52.25
2023-09-26T10:22:45.504Z,49.42
2023-09-26T10:24:54.181Z,53.25
2023-09-26T10:27:01.386Z,58.72
2023-09-26T10:29:13.792Z,68.28
2023-09-26T10:31:16.337Z,72.32
2023-09-26T10:35:45.774Z,73.72
2023-09-26T10:37:50.946Z,74.78
2023-09-26T10:39:55.951Z,76.55
2023-09-26T10:42:19.645Z,73.72
2023-09-26T10:44:22.317Z,68.70
2023-09-26T10:46:26.934Z,69.38
2023-09-26T10:48:28.504Z,68.45
2023-09-26T10:50:33.834Z,62.38
2023-09-26T10:52:35.843Z,54.85
2023-09-26T10:54:42.246Z,61.30
2023-09-26T10:56:48.742Z,64.07
2023-09-26T10:58:53.543Z,67.78
2023-09-26T11:00:59.108Z,65.90
2023-09-26T11:05:29.229Z,60.13
2023-09-26T11:07:34.095Z,58.63
2023-09-26T11:09:40.803Z,57.58
2023-09-26T11:11:43.284Z,58.85
2023-09-26T11:13:47.530Z,62.15
2023-09-26T11:15:52.171Z,59.42
2023-09-26T11:17:54.360Z,54.90
2023-09-26T11:20:14.616Z,49.97
2023-09-26T11:22:53.367Z,49.28
2023-09-26T11:25:04.677Z,51.25
2023-09-26T11:27:25.023Z,51.72
2023-09-26T11:29:26.844Z,43.63
2023-09-26T11:33:34.065Z,100.20
2023-09-26T11:35:35.589Z,57.33
2023-09-26T11:37:39.986Z,52.60
2023-09-26T11:40:00.289Z,42.40
2023-09-26T11:44:12.998Z,107.55
2023-09-26T11:48:15.820Z,104.90
2023-09-26T11:50:17.396Z,50.72
2023-09-26T11:52:21.762Z,47.83
2023-09-26T11:56:30.728Z,102.15
2023-09-26T11:58:38.233Z,59.45
2023-09-26T12:00:39.841Z,53.45
2023-09-26T12:02:45.116Z,45.38
2023-09-26T12:04:49.812Z,39.10
2023-09-26T12:06:54.049Z,47.15
2023-09-26T12:08:58.699Z,41.83
2023-09-26T12:11:00.216Z,46.40
2023-09-26T12:13:03.598Z,43.85
2023-09-26T12:15:20.521Z,36.70
2023-09-26T12:17:25.005Z,32.35
2023-09-26T12:19:26.731Z,37.05
2023-09-26T12:21:31.425Z,30.00
2023-09-26T12:25:53.492Z,89.70
2023-09-26T12:27:58.183Z,34.80
2023-09-26T12:29:59.766Z,38.50
2023-09-26T12:34:09.055Z,76.15
2023-09-26T12:36:11.361Z,37.35
2023-09-26T12:38:12.890Z,29.80
2023-09-26T12:42:26.058Z,76.32
2023-09-26T12:44:30.386Z,33.05
2023-09-26T12:46:38.898Z,34.60
2023-09-26T12:48:44.523Z,33.80
2023-09-26T12:53:11.302Z,79.30
2023-09-26T13:01:31.693Z,77.05
2023-09-26T13:03:34.476Z,44.00
2023-09-26T13:09:41.756Z,70.63
2023-09-26T13:13:46.681Z,69.78
2023-09-26T13:15:49.704Z,39.33
2023-09-26T13:20:15.051Z,68.10
2023-09-26T13:24:23.805Z,68.80
2023-09-26T13:26:29.444Z,33.45
2023-09-26T13:30:37.378Z,68.03
2023-09-26T13:35:05.707Z,66.18
2023-09-26T13:39:14.556Z,60.45
2023-09-26T13:43:21.411Z,61.38
2023-09-26T13:47:27.262Z,60.50
2023-09-26T13:51:56.583Z,61.90
2023-09-26T13:56:18.176Z,61.67
2023-09-26T14:00:42.165Z,26.50
2023-09-26T14:04:58.475Z,56.58
2023-09-26T14:09:14.522Z,56.40
2023-09-26T14:13:17.406Z,52.90
2023-09-26T14:17:25.895Z,51.95
2023-09-26T14:21:34.829Z,51.47
2023-09-26T14:27:48.387Z,53.28
2023-09-26T14:32:10.251Z,55.63
2023-09-26T14:36:16.142Z,53.13
2023-09-26T14:46:53.294Z,51.45
2023-09-26T14:59:23.460Z,45.47
2023-09-26T15:13:55.059Z,48.28
